createdAt,value
2019-04-30T00:00:07.726Z,8.82
2019-04-30T00:01:07.467Z,8.87
2019-04-30T00:02:07.704Z,8.87
2019-04-30T00:03:06.930Z,8.81
2019-04-30T00:04:06.683Z,8.92
2019-04-30T00:05:10.068Z,8.82
2019-04-30T00:06:07.665Z,8.84
2019-04-30T00:07:10.189Z,8.87
2019-04-30T00:08:07.666Z,8.89
2019-04-30T00:09:09.776Z,8.86
2019-04-30T00:10:07.609Z,8.89
2019-04-30T00:11:10.688Z,8.89
2019-04-30T00:12:07.591Z,8.87
2019-04-30T00:13:10.396Z,8.87
2019-04-30T00:14:07.584Z,8.81
2019-04-30T00:15:10.838Z,8.81
2019-04-30T00:16:07.543Z,8.78
2019-04-30T00:17:10.625Z,8.69
2019-04-30T00:18:06.526Z,8.63
2019-04-30T00:19:10.675Z,8.64
2019-04-30T00:20:07.498Z,8.61
2019-04-30T00:21:10.021Z,8.71
2019-04-30T00:22:07.478Z,8.61
2019-04-30T00:23:06.470Z,8.63
2019-04-30T00:24:10.212Z,8.63
2019-04-30T00:25:06.459Z,8.54
2019-04-30T00:26:10.295Z,8.57
2019-04-30T00:27:06.426Z,8.63
2019-04-30T00:28:08.742Z,8.52
2019-04-30T00:29:06.418Z,8.59
2019-04-30T00:30:09.007Z,8.54
2019-04-30T00:31:06.383Z,8.53
2019-04-30T00:32:07.920Z,8.63
2019-04-30T00:33:06.360Z,8.61
2019-04-30T00:34:06.359Z,8.78
2019-04-30T00:35:07.322Z,8.71
2019-04-30T00:36:07.322Z,8.74
2019-04-30T00:37:07.313Z,8.75
2019-04-30T00:38:07.299Z,8.69
2019-04-30T00:39:07.184Z,8.78
2019-04-30T00:40:07.277Z,8.84
2019-04-30T00:41:10.032Z,8.81
2019-04-30T00:42:06.260Z,8.77
2019-04-30T00:43:09.040Z,8.77
2019-04-30T00:44:06.247Z,8.71
2019-04-30T00:45:09.592Z,8.71
2019-04-30T00:46:06.211Z,8.66
2019-04-30T00:47:08.222Z,8.68
2019-04-30T00:48:06.189Z,8.72
2019-04-30T00:49:09.863Z,8.71
2019-04-30T00:50:07.170Z,8.81
2019-04-30T00:51:07.573Z,8.71
2019-04-30T00:52:07.149Z,8.66
2019-04-30T00:53:12.422Z,8.71
2019-04-30T00:54:07.138Z,8.69
2019-04-30T00:55:09.020Z,8.60
2019-04-30T00:56:06.099Z,8.64
2019-04-30T00:57:07.647Z,8.64
2019-04-30T00:58:06.080Z,8.64
2019-04-30T00:59:07.164Z,8.61
2019-04-30T01:00:06.056Z,8.57
2019-04-30T01:01:08.115Z,8.60
2019-04-30T01:02:06.164Z,8.59
2019-04-30T01:03:09.400Z,8.39
2019-04-30T01:04:06.025Z,8.41
2019-04-30T01:05:08.992Z,8.36
2019-04-30T01:06:05.990Z,8.28
2019-04-30T01:07:08.639Z,8.31
2019-04-30T01:08:07.083Z,8.28
2019-04-30T01:09:08.693Z,8.28
2019-04-30T01:10:05.944Z,8.26
2019-04-30T01:11:09.392Z,8.38
2019-04-30T01:12:05.927Z,8.42
2019-04-30T01:13:08.017Z,8.49
2019-04-30T01:14:06.914Z,8.42
2019-04-30T01:15:06.409Z,8.32
2019-04-30T01:16:05.879Z,8.27
2019-04-30T01:17:08.812Z,8.20
2019-04-30T01:18:06.854Z,8.16
2019-04-30T01:19:09.404Z,8.26
2019-04-30T01:20:06.832Z,8.20
2019-04-30T01:21:07.877Z,8.11
2019-04-30T01:22:06.811Z,8.09
2019-04-30T01:23:09.823Z,8.09
2019-04-30T01:24:06.803Z,8.18
2019-04-30T01:25:09.138Z,8.13
2019-04-30T01:26:08.642Z,8.21
2019-04-30T01:27:07.089Z,8.23
2019-04-30T01:28:05.750Z,8.23
2019-04-30T01:29:05.756Z,8.23
2019-04-30T01:30:05.723Z,8.28
2019-04-30T01:31:05.717Z,8.20
2019-04-30T01:32:05.707Z,8.26
2019-04-30T01:33:05.695Z,8.18
2019-04-30T01:34:10.338Z,8.17
2019-04-30T01:35:06.668Z,8.28
2019-04-30T01:36:09.507Z,8.26
2019-04-30T01:37:08.712Z,8.32
2019-04-30T01:38:11.074Z,8.27
2019-04-30T01:39:06.640Z,8.31
2019-04-30T01:40:10.653Z,8.36
2019-04-30T01:41:06.603Z,8.39
2019-04-30T01:42:07.911Z,8.41
2019-04-30T01:43:06.578Z,8.35
2019-04-30T01:44:08.718Z,8.39
2019-04-30T01:45:06.556Z,8.42
2019-04-30T01:46:12.168Z,8.36
2019-04-30T01:47:06.534Z,8.36
2019-04-30T01:48:10.697Z,8.38
2019-04-30T01:49:08.552Z,8.41
2019-04-30T01:50:05.509Z,8.39
2019-04-30T01:51:05.496Z,8.42
2019-04-30T01:52:05.484Z,8.41
2019-04-30T01:53:11.522Z,8.35
2019-04-30T01:54:06.461Z,8.42
2019-04-30T01:55:05.463Z,8.36
2019-04-30T01:56:05.442Z,8.35
2019-04-30T01:57:05.428Z,8.28
2019-04-30T01:58:05.418Z,8.24
2019-04-30T01:59:05.403Z,8.28
2019-04-30T02:00:05.410Z,8.31
2019-04-30T02:01:05.381Z,8.34
2019-04-30T02:02:05.378Z,8.32
2019-04-30T02:03:05.358Z,8.34
2019-04-30T02:04:05.353Z,8.27
2019-04-30T02:05:05.351Z,8.23
2019-04-30T02:06:05.332Z,8.20
2019-04-30T02:07:05.315Z,8.28
2019-04-30T02:08:05.307Z,8.24
2019-04-30T02:09:05.292Z,8.31
2019-04-30T02:10:05.301Z,8.34
2019-04-30T02:11:05.271Z,8.27
2019-04-30T02:12:05.265Z,8.24
2019-04-30T02:13:05.249Z,8.35
2019-04-30T02:14:05.250Z,8.23
2019-04-30T02:15:05.244Z,8.28
2019-04-30T02:16:05.219Z,8.27
2019-04-30T02:17:05.203Z,8.32
2019-04-30T02:18:05.199Z,8.23
2019-04-30T02:19:05.185Z,8.28
2019-04-30T02:20:05.192Z,8.35
2019-04-30T02:21:05.164Z,8.20
2019-04-30T02:22:05.154Z,8.28
2019-04-30T02:23:05.138Z,8.32
2019-04-30T02:24:05.131Z,8.36
2019-04-30T02:25:05.130Z,8.24
2019-04-30T02:26:05.108Z,8.34
2019-04-30T02:27:05.095Z,8.32
2019-04-30T02:28:05.087Z,8.35
2019-04-30T02:29:05.074Z,8.27
2019-04-30T02:30:05.089Z,8.31
2019-04-30T02:31:05.051Z,8.35
2019-04-30T02:32:05.050Z,8.27
2019-04-30T02:33:05.029Z,8.34
2019-04-30T02:34:05.025Z,8.24
2019-04-30T02:35:05.021Z,8.23
2019-04-30T02:36:05.001Z,8.28
2019-04-30T02:37:04.987Z,8.23
2019-04-30T02:38:04.977Z,8.24
2019-04-30T02:39:04.966Z,8.20
2019-04-30T02:40:04.968Z,8.24
2019-04-30T02:41:04.940Z,8.18
2019-04-30T02:42:04.937Z,8.18
2019-04-30T02:43:04.919Z,8.16
2019-04-30T02:44:04.912Z,8.18
2019-04-30T02:45:04.910Z,8.18
2019-04-30T02:46:04.893Z,8.20
2019-04-30T02:47:04.874Z,8.16
2019-04-30T02:48:04.871Z,8.16
2019-04-30T02:49:04.852Z,8.21
2019-04-30T02:50:15.356Z,8.16
2019-04-30T02:51:05.830Z,8.21
2019-04-30T02:52:04.823Z,8.17
2019-04-30T02:53:04.808Z,8.17
2019-04-30T02:54:04.802Z,8.14
2019-04-30T02:55:04.824Z,8.20
2019-04-30T02:56:04.778Z,8.18
2019-04-30T02:57:04.767Z,8.16
2019-04-30T02:58:04.769Z,8.17
2019-04-30T02:59:04.743Z,8.20
2019-04-30T03:00:04.740Z,8.13
2019-04-30T03:01:04.734Z,8.21
2019-04-30T03:02:04.711Z,8.20
2019-04-30T03:03:04.700Z,8.20
2019-04-30T03:04:04.691Z,8.17
2019-04-30T03:05:04.678Z,8.17
2019-04-30T03:06:04.682Z,8.17
2019-04-30T03:07:04.654Z,8.20
2019-04-30T03:08:04.646Z,8.18
2019-04-30T03:09:04.630Z,8.21
2019-04-30T03:10:04.626Z,8.24
2019-04-30T03:11:04.623Z,8.20
2019-04-30T03:12:04.602Z,8.16
2019-04-30T03:13:04.589Z,8.16
2019-04-30T03:14:04.579Z,8.17
2019-04-30T03:15:04.626Z,8.14
2019-04-30T03:16:04.577Z,8.18
2019-04-30T03:17:04.545Z,8.17
2019-04-30T03:18:04.536Z,8.17
2019-04-30T03:19:04.521Z,8.14
2019-04-30T03:20:04.514Z,8.06
2019-04-30T03:21:04.515Z,8.05
2019-04-30T03:22:04.497Z,8.17
2019-04-30T03:23:04.474Z,8.11
2019-04-30T03:24:04.468Z,8.11
2019-04-30T03:25:04.454Z,8.11
2019-04-30T03:26:04.468Z,8.09
2019-04-30T03:27:04.433Z,8.06
2019-04-30T03:28:04.435Z,8.05
2019-04-30T03:29:04.409Z,8.13
2019-04-30T03:30:04.406Z,8.08
2019-04-30T03:31:04.976Z,8.09
2019-04-30T03:32:04.384Z,8.05
2019-04-30T03:33:04.368Z,8.05
2019-04-30T03:34:04.397Z,8.03
2019-04-30T03:35:04.352Z,8.06
2019-04-30T03:36:04.359Z,8.13
2019-04-30T03:37:04.329Z,8.03
2019-04-30T03:38:04.324Z,8.14
2019-04-30T03:39:04.299Z,8.06
2019-04-30T03:40:04.298Z,8.06
2019-04-30T03:41:04.290Z,8.06
2019-04-30T03:42:04.273Z,8.06
2019-04-30T03:43:04.255Z,8.13
2019-04-30T03:44:17.331Z,8.13
2019-04-30T03:45:05.233Z,8.08
2019-04-30T03:46:04.241Z,8.05
2019-04-30T03:47:04.209Z,8.05
2019-04-30T03:48:04.210Z,8.02
2019-04-30T03:49:04.197Z,8.06
2019-04-30T03:50:04.182Z,8.06
2019-04-30T03:51:04.181Z,8.03
2019-04-30T03:52:04.162Z,8.09
2019-04-30T03:53:04.144Z,8.06
2019-04-30T03:54:04.143Z,8.09
2019-04-30T03:55:04.123Z,8.01
2019-04-30T03:56:04.129Z,8.08
2019-04-30T03:57:04.106Z,8.09
2019-04-30T03:58:04.094Z,8.13
2019-04-30T03:59:04.077Z,8.11
2019-04-30T04:00:04.075Z,8.06
2019-04-30T04:01:04.075Z,8.11
2019-04-30T04:02:04.054Z,8.13
2019-04-30T04:03:04.039Z,8.16
2019-04-30T04:04:04.030Z,8.06
2019-04-30T04:05:04.014Z,8.11
2019-04-30T04:06:04.020Z,8.14
2019-04-30T04:07:03.989Z,8.09
2019-04-30T04:08:03.989Z,8.05
2019-04-30T04:09:03.969Z,8.06
2019-04-30T04:10:03.979Z,8.05
2019-04-30T04:11:03.959Z,8.06
2019-04-30T04:12:03.939Z,8.08
2019-04-30T04:13:03.926Z,8.06
2019-04-30T04:14:03.919Z,8.11
2019-04-30T04:15:04.333Z,8.02
2019-04-30T04:16:03.911Z,8.06
2019-04-30T04:17:03.880Z,8.06
2019-04-30T04:18:03.876Z,8.11
2019-04-30T04:19:03.874Z,8.09
2019-04-30T04:20:03.854Z,8.05
2019-04-30T04:21:11.727Z,8.05
2019-04-30T04:22:04.825Z,8.13
2019-04-30T04:23:03.820Z,8.09
2019-04-30T04:24:03.804Z,8.11
2019-04-30T04:25:03.801Z,8.08
2019-04-30T04:26:03.794Z,8.08
2019-04-30T04:27:03.774Z,8.11
2019-04-30T04:28:03.765Z,8.11
2019-04-30T04:29:03.756Z,8.14
2019-04-30T04:30:03.741Z,8.17
2019-04-30T04:31:03.767Z,8.20
2019-04-30T04:32:03.717Z,8.03
2019-04-30T04:33:03.712Z,8.16
2019-04-30T04:34:03.695Z,8.13
2019-04-30T04:35:03.685Z,8.18
2019-04-30T04:36:03.671Z,8.20
2019-04-30T04:37:03.677Z,8.18
2019-04-30T04:38:03.647Z,8.14
2019-04-30T04:39:03.642Z,8.18
2019-04-30T04:40:03.635Z,8.21
2019-04-30T04:41:03.625Z,8.14
2019-04-30T04:42:03.618Z,8.06
2019-04-30T04:43:03.601Z,8.11
2019-04-30T04:44:03.580Z,8.06
2019-04-30T04:45:03.587Z,8.06
2019-04-30T04:46:03.558Z,8.11
2019-04-30T04:47:03.575Z,8.11
2019-04-30T04:48:03.537Z,8.09
2019-04-30T04:49:03.538Z,8.06
2019-04-30T04:50:03.516Z,8.11
2019-04-30T04:51:03.511Z,8.06
2019-04-30T04:52:03.509Z,8.08
2019-04-30T04:53:03.485Z,8.16
2019-04-30T04:54:03.606Z,8.03
2019-04-30T04:55:03.465Z,8.17
2019-04-30T04:56:03.459Z,8.09
2019-04-30T04:57:14.914Z,8.09
2019-04-30T04:58:04.425Z,8.14
2019-04-30T04:59:03.420Z,8.21
2019-04-30T05:00:07.408Z,8.17
2019-04-30T05:01:04.400Z,8.18
2019-04-30T05:02:03.398Z,8.23
2019-04-30T05:03:03.377Z,8.26
2019-04-30T05:04:03.364Z,8.32
2019-04-30T05:05:03.359Z,8.24
2019-04-30T05:06:03.339Z,8.28
2019-04-30T05:07:03.345Z,8.32
2019-04-30T05:08:03.315Z,8.26
2019-04-30T05:09:03.315Z,8.27
2019-04-30T05:10:03.293Z,8.31
2019-04-30T05:11:03.318Z,8.31
2019-04-30T05:12:03.297Z,8.42
2019-04-30T05:13:03.264Z,8.36
2019-04-30T05:14:03.248Z,8.42
2019-04-30T05:15:03.247Z,8.39
2019-04-30T05:16:03.226Z,8.42
2019-04-30T05:17:03.233Z,8.54
2019-04-30T05:18:03.205Z,8.56
2019-04-30T05:19:03.197Z,8.50
2019-04-30T05:20:03.183Z,8.50
2019-04-30T05:21:03.177Z,8.42
2019-04-30T05:22:03.172Z,8.35
2019-04-30T05:23:03.161Z,8.38
2019-04-30T05:24:03.138Z,8.39
2019-04-30T05:25:03.134Z,8.41
2019-04-30T05:26:03.114Z,8.56
2019-04-30T05:27:03.125Z,8.54
2019-04-30T05:28:03.094Z,8.49
2019-04-30T05:29:03.088Z,8.54
2019-04-30T05:30:03.072Z,8.59
2019-04-30T05:31:03.064Z,8.64
2019-04-30T05:32:03.064Z,8.59
2019-04-30T05:33:03.042Z,8.56
2019-04-30T05:34:03.028Z,8.53
2019-04-30T05:35:03.020Z,8.54
2019-04-30T05:36:03.003Z,8.60
2019-04-30T05:37:03.010Z,8.59
2019-04-30T05:38:02.984Z,8.66
2019-04-30T05:39:02.975Z,8.56
2019-04-30T05:40:02.967Z,8.66
2019-04-30T05:41:02.953Z,8.69
2019-04-30T05:42:02.952Z,8.66
2019-04-30T05:43:02.929Z,8.75
2019-04-30T05:44:02.913Z,8.68
2019-04-30T05:45:02.913Z,8.75
2019-04-30T05:46:02.896Z,8.69
2019-04-30T05:47:02.891Z,8.74
2019-04-30T05:48:02.882Z,8.71
2019-04-30T05:49:02.868Z,8.78
2019-04-30T05:50:02.849Z,8.77
2019-04-30T05:51:02.841Z,8.81
2019-04-30T05:52:02.826Z,8.77
2019-04-30T05:53:02.835Z,8.92
2019-04-30T05:54:02.804Z,8.81
2019-04-30T05:55:02.800Z,8.81
2019-04-30T05:56:03.321Z,8.87
2019-04-30T05:57:02.776Z,8.74
2019-04-30T05:58:02.772Z,8.87
2019-04-30T05:59:02.754Z,8.92
2019-04-30T06:00:02.739Z,8.84
2019-04-30T06:01:02.728Z,8.82
2019-04-30T06:02:02.714Z,8.82
2019-04-30T06:03:02.722Z,8.74
2019-04-30T06:04:02.692Z,8.77
2019-04-30T06:05:02.686Z,8.97
2019-04-30T06:06:02.669Z,8.93
2019-04-30T06:07:02.663Z,9.05
2019-04-30T06:08:02.660Z,8.97
2019-04-30T06:09:06.725Z,8.96
2019-04-30T06:10:03.624Z,8.86
2019-04-30T06:11:02.618Z,8.82
2019-04-30T06:12:02.605Z,8.79
2019-04-30T06:13:02.610Z,8.99
2019-04-30T06:14:02.585Z,8.95
2019-04-30T06:15:02.573Z,9.00
2019-04-30T06:16:02.566Z,9.08
2019-04-30T06:17:02.551Z,9.09
2019-04-30T06:18:10.763Z,9.13
2019-04-30T06:19:03.524Z,9.12
2019-04-30T06:20:02.525Z,9.31
2019-04-30T06:21:02.503Z,9.37
2019-04-30T06:22:07.412Z,9.47
2019-04-30T06:23:03.496Z,9.45
2019-04-30T06:24:02.473Z,9.66
2019-04-30T06:25:02.460Z,9.62
2019-04-30T06:26:09.572Z,9.80
2019-04-30T06:27:03.437Z,9.84
2019-04-30T06:28:02.446Z,9.80
2019-04-30T06:29:02.414Z,9.94
2019-04-30T06:30:02.411Z,9.87
2019-04-30T06:31:02.394Z,9.92
2019-04-30T06:32:02.387Z,9.95
2019-04-30T06:33:02.386Z,10.00
2019-04-30T06:34:02.364Z,9.99
2019-04-30T06:35:02.352Z,10.10
2019-04-30T06:36:02.346Z,10.09
2019-04-30T06:37:02.334Z,10.09
2019-04-30T06:38:02.340Z,10.10
2019-04-30T06:39:02.311Z,10.24
2019-04-30T06:40:02.298Z,10.31
2019-04-30T06:41:02.282Z,10.23
2019-04-30T06:42:06.460Z,10.17
2019-04-30T06:43:03.272Z,10.21
2019-04-30T06:44:02.253Z,10.27
2019-04-30T06:45:02.238Z,10.31
2019-04-30T06:46:02.232Z,10.28
2019-04-30T06:47:02.216Z,10.13
2019-04-30T06:48:02.221Z,10.15
2019-04-30T06:49:02.193Z,10.24
2019-04-30T06:50:02.190Z,10.24
2019-04-30T06:51:02.171Z,10.41
2019-04-30T06:52:02.164Z,10.46
2019-04-30T06:53:02.163Z,10.42
2019-04-30T06:54:02.142Z,10.49
2019-04-30T06:55:02.129Z,10.39
2019-04-30T06:56:02.117Z,10.23
2019-04-30T06:57:02.103Z,10.24
2019-04-30T06:58:11.974Z,10.18
2019-04-30T06:59:03.077Z,10.18
2019-04-30T07:00:02.081Z,10.31
2019-04-30T07:01:02.060Z,10.27
2019-04-30T07:02:02.049Z,10.39
2019-04-30T07:03:02.047Z,10.27
2019-04-30T07:04:02.028Z,10.23
2019-04-30T07:05:02.011Z,10.46
2019-04-30T07:06:02.010Z,10.55
2019-04-30T07:07:01.988Z,10.84
2019-04-30T07:08:08.830Z,10.97
2019-04-30T07:09:02.965Z,10.90
2019-04-30T07:10:01.964Z,10.86
2019-04-30T07:11:07.392Z,11.19
2019-04-30T07:12:03.043Z,11.40
2019-04-30T07:13:01.925Z,11.43
2019-04-30T07:14:01.921Z,11.20
2019-04-30T07:15:01.903Z,11.20
2019-04-30T07:16:01.892Z,11.27
2019-04-30T07:17:01.880Z,11.38
2019-04-30T07:18:01.864Z,11.22
2019-04-30T07:19:01.870Z,11.31
2019-04-30T07:20:01.842Z,11.33
2019-04-30T07:21:01.835Z,11.25
2019-04-30T07:22:01.823Z,11.26
2019-04-30T07:23:03.312Z,11.37
2019-04-30T07:24:01.813Z,11.49
2019-04-30T07:25:01.794Z,11.59
2019-04-30T07:26:01.780Z,11.67
2019-04-30T07:27:02.870Z,11.60
2019-04-30T07:28:01.759Z,11.52
2019-04-30T07:29:02.617Z,11.48
2019-04-30T07:30:01.734Z,11.58
2019-04-30T07:31:11.625Z,11.53
2019-04-30T07:32:02.733Z,11.40
2019-04-30T07:33:01.709Z,11.43
2019-04-30T07:34:01.704Z,11.51
2019-04-30T07:35:01.686Z,11.51
2019-04-30T07:36:01.889Z,11.52
2019-04-30T07:37:11.969Z,11.49
2019-04-30T07:38:04.847Z,11.52
2019-04-30T07:39:01.648Z,11.51
2019-04-30T07:40:01.621Z,11.76
2019-04-30T07:41:01.614Z,12.21
2019-04-30T07:42:01.597Z,12.51
2019-04-30T07:43:01.595Z,12.99
2019-04-30T07:44:01.590Z,13.11
2019-04-30T07:45:01.570Z,13.33
2019-04-30T07:46:02.262Z,13.27
2019-04-30T07:47:02.064Z,13.47
2019-04-30T07:48:01.531Z,13.70
2019-04-30T07:49:01.543Z,13.47
2019-04-30T07:50:01.516Z,13.23
2019-04-30T07:51:01.506Z,13.30
2019-04-30T07:52:02.356Z,13.20
2019-04-30T07:53:05.866Z,13.01
2019-04-30T07:54:02.475Z,12.73
2019-04-30T07:55:01.471Z,12.65
2019-04-30T07:56:02.229Z,12.87
2019-04-30T07:57:01.452Z,12.88
2019-04-30T07:58:01.420Z,13.21
2019-04-30T07:59:02.848Z,13.28
2019-04-30T08:00:01.397Z,13.23
2019-04-30T08:01:01.390Z,13.27
2019-04-30T08:02:09.994Z,13.30
2019-04-30T08:03:02.360Z,13.30
2019-04-30T08:04:01.367Z,12.98
2019-04-30T08:05:01.342Z,12.80
2019-04-30T08:06:01.337Z,12.70
2019-04-30T08:07:01.330Z,12.95
2019-04-30T08:08:16.678Z,13.78
2019-04-30T08:09:02.490Z,14.40
2019-04-30T08:10:01.283Z,14.68
2019-04-30T08:11:01.278Z,15.02
2019-04-30T08:12:01.345Z,14.71
2019-04-30T08:13:10.413Z,14.70
2019-04-30T08:14:02.560Z,14.49
2019-04-30T08:15:01.232Z,14.70
2019-04-30T08:16:01.217Z,15.14
2019-04-30T08:17:01.210Z,15.30
2019-04-30T08:18:05.463Z,15.23
2019-04-30T08:19:01.202Z,15.12
2019-04-30T08:20:01.174Z,14.90
2019-04-30T08:21:01.168Z,14.87
2019-04-30T08:22:01.152Z,14.56
2019-04-30T08:23:13.193Z,14.51
2019-04-30T08:24:02.144Z,14.44
2019-04-30T08:25:01.125Z,14.53
2019-04-30T08:26:01.105Z,14.41
2019-04-30T08:27:01.293Z,14.33
2019-04-30T08:28:01.088Z,14.38
2019-04-30T08:29:01.094Z,14.26
2019-04-30T08:30:01.062Z,13.95
2019-04-30T08:31:01.058Z,13.71
2019-04-30T08:32:01.040Z,13.86
2019-04-30T08:33:01.034Z,14.00
2019-04-30T08:34:01.047Z,14.49
2019-04-30T08:35:01.282Z,14.92
2019-04-30T08:36:01.067Z,15.07
2019-04-30T08:37:12.849Z,15.23
2019-04-30T08:38:01.974Z,14.89
2019-04-30T08:39:00.968Z,14.86
2019-04-30T08:40:03.444Z,14.74
2019-04-30T08:41:00.998Z,14.36
2019-04-30T08:42:00.937Z,14.41
2019-04-30T08:43:00.925Z,14.37
2019-04-30T08:44:00.910Z,14.37
2019-04-30T08:45:00.915Z,14.37
2019-04-30T08:46:00.892Z,14.28
2019-04-30T08:47:00.885Z,15.30
2019-04-30T08:48:00.872Z,16.17
2019-04-30T08:49:01.171Z,16.79
2019-04-30T08:50:02.767Z,16.40
2019-04-30T08:51:00.837Z,15.91
2019-04-30T08:52:00.822Z,16.06
2019-04-30T08:53:01.093Z,16.17
2019-04-30T08:54:00.799Z,16.36
2019-04-30T08:55:12.710Z,16.58
2019-04-30T08:56:01.773Z,16.47
2019-04-30T08:57:00.768Z,16.49
2019-04-30T08:58:09.318Z,17.05
2019-04-30T08:59:01.739Z,17.75
2019-04-30T09:00:00.752Z,18.27
2019-04-30T09:01:00.719Z,18.24
2019-04-30T09:02:12.844Z,18.53
2019-04-30T09:03:01.704Z,18.92
2019-04-30T09:04:00.694Z,19.34
2019-04-30T09:05:00.690Z,18.96
2019-04-30T09:06:00.667Z,19.08
2019-04-30T09:07:00.653Z,19.63
2019-04-30T09:08:00.645Z,20.04
2019-04-30T09:09:00.630Z,20.34
2019-04-30T09:10:01.270Z,20.24
2019-04-30T09:11:00.611Z,20.48
2019-04-30T09:12:00.602Z,20.59
2019-04-30T09:13:00.589Z,20.64
2019-04-30T09:14:00.580Z,19.96
2019-04-30T09:15:00.579Z,20.22
2019-04-30T09:16:00.558Z,20.07
2019-04-30T09:17:00.542Z,19.67
2019-04-30T09:18:05.903Z,20.02
2019-04-30T09:19:01.523Z,20.52
2019-04-30T09:20:00.527Z,20.22
2019-04-30T09:21:06.051Z,19.75
2019-04-30T09:22:01.493Z,19.89
2019-04-30T09:23:00.479Z,19.94
2019-04-30T09:24:00.473Z,20.07
2019-04-30T09:25:00.474Z,20.29
2019-04-30T09:26:00.455Z,20.27
2019-04-30T09:27:00.438Z,20.42
2019-04-30T09:28:00.438Z,19.96
2019-04-30T09:29:00.416Z,20.10
2019-04-30T09:30:00.423Z,20.73
2019-04-30T09:31:00.397Z,21.28
2019-04-30T09:32:00.394Z,21.05
2019-04-30T09:33:00.376Z,20.78
2019-04-30T09:34:01.087Z,20.40
2019-04-30T09:35:00.364Z,20.55
2019-04-30T09:36:00.353Z,20.52
2019-04-30T09:37:00.329Z,20.86
2019-04-30T09:38:02.025Z,21.15
2019-04-30T09:39:01.460Z,21.40
2019-04-30T09:40:00.317Z,21.68
2019-04-30T09:41:00.286Z,21.84
2019-04-30T09:42:00.283Z,21.92
2019-04-30T09:43:00.485Z,22.07
2019-04-30T09:44:00.257Z,21.40
2019-04-30T09:45:00.254Z,20.58
2019-04-30T09:46:00.233Z,20.49
2019-04-30T09:47:00.216Z,20.71
2019-04-30T09:48:00.211Z,21.08
2019-04-30T09:49:00.197Z,21.17
2019-04-30T09:50:00.209Z,21.30
2019-04-30T09:51:01.047Z,21.58
2019-04-30T09:52:00.525Z,21.92
2019-04-30T09:53:00.874Z,22.15
2019-04-30T09:54:03.331Z,22.19
2019-04-30T09:55:00.541Z,22.36
2019-04-30T09:56:00.125Z,22.25
2019-04-30T09:57:00.103Z,22.18
2019-04-30T09:58:00.097Z,21.92
2019-04-30T09:59:00.081Z,21.56
2019-04-30T10:00:00.630Z,21.92
2019-04-30T10:01:00.059Z,21.80
2019-04-30T10:02:00.054Z,21.88
2019-04-30T10:03:00.640Z,21.91
2019-04-30T10:04:00.685Z,21.65
2019-04-30T10:05:00.406Z,21.78
2019-04-30T10:06:00.022Z,21.15
2019-04-30T10:06:59.994Z,21.38
2019-04-30T10:07:59.994Z,21.85
2019-04-30T10:08:59.973Z,22.46
2019-04-30T10:09:59.966Z,22.04
2019-04-30T10:10:59.963Z,21.92
2019-04-30T10:11:59.954Z,22.36
2019-04-30T10:12:59.932Z,22.76
2019-04-30T10:13:59.928Z,22.67
2019-04-30T10:14:59.908Z,22.34
2019-04-30T10:15:59.914Z,21.75
2019-04-30T10:16:59.887Z,22.14
2019-04-30T10:17:59.881Z,22.63
2019-04-30T10:19:01.378Z,23.10
2019-04-30T10:19:59.863Z,23.59
2019-04-30T10:21:00.913Z,23.52
2019-04-30T10:21:59.836Z,23.11
2019-04-30T10:22:59.827Z,23.17
2019-04-30T10:24:12.516Z,23.33
2019-04-30T10:25:00.801Z,23.84
2019-04-30T10:25:59.808Z,24.09
2019-04-30T10:26:59.810Z,24.09
2019-04-30T10:27:59.909Z,23.86
2019-04-30T10:28:59.759Z,23.95
2019-04-30T10:29:59.753Z,24.29
2019-04-30T10:30:59.749Z,23.49
2019-04-30T10:31:59.730Z,23.18
2019-04-30T10:32:59.713Z,23.08
2019-04-30T10:33:59.708Z,23.28
2019-04-30T10:34:59.693Z,23.74
2019-04-30T10:35:59.701Z,23.37
2019-04-30T10:37:02.831Z,22.76
2019-04-30T10:37:59.680Z,22.37
2019-04-30T10:38:59.701Z,22.71
2019-04-30T10:39:59.870Z,23.28
2019-04-30T10:40:59.663Z,23.51
2019-04-30T10:41:59.628Z,23.52
2019-04-30T10:42:59.613Z,23.08
2019-04-30T10:43:59.612Z,23.29
2019-04-30T10:45:00.297Z,23.94
2019-04-30T10:45:59.591Z,24.16
2019-04-30T10:46:59.563Z,24.46
2019-04-30T10:47:59.573Z,24.19
2019-04-30T10:48:59.552Z,24.28
2019-04-30T10:49:59.541Z,24.43
2019-04-30T10:50:59.534Z,24.66
2019-04-30T10:52:01.183Z,24.40
2019-04-30T10:52:59.499Z,24.32
2019-04-30T10:53:59.493Z,23.74
2019-04-30T10:54:59.635Z,23.73
2019-04-30T10:55:59.590Z,23.82
2019-04-30T10:56:59.455Z,24.03
2019-04-30T10:57:59.459Z,24.46
2019-04-30T10:58:59.433Z,24.82
2019-04-30T10:59:59.427Z,24.78
2019-04-30T11:01:01.902Z,24.66
2019-04-30T11:01:59.406Z,24.82
2019-04-30T11:02:59.413Z,24.41
2019-04-30T11:03:59.406Z,23.64
2019-04-30T11:04:59.374Z,23.76
2019-04-30T11:05:59.381Z,23.44
2019-04-30T11:07:00.578Z,23.79
2019-04-30T11:07:59.585Z,23.79
2019-04-30T11:08:59.328Z,24.07
2019-04-30T11:09:59.340Z,24.26
2019-04-30T11:10:59.319Z,24.28
2019-04-30T11:11:59.439Z,24.25
2019-04-30T11:12:59.288Z,24.14
2019-04-30T11:13:59.275Z,24.18
2019-04-30T11:14:59.267Z,24.22
2019-04-30T11:16:11.903Z,24.37
2019-04-30T11:17:00.661Z,24.06
2019-04-30T11:17:59.794Z,24.07
2019-04-30T11:18:59.430Z,24.04
2019-04-30T11:19:59.442Z,23.44
2019-04-30T11:20:59.795Z,23.51
2019-04-30T11:21:59.417Z,24.07
2019-04-30T11:22:59.401Z,24.62
2019-04-30T11:23:59.534Z,25.00
2019-04-30T11:25:02.461Z,25.25
2019-04-30T11:26:00.110Z,25.46
2019-04-30T11:27:00.230Z,25.15
2019-04-30T11:27:59.457Z,25.16
2019-04-30T11:28:59.306Z,25.31
2019-04-30T11:30:03.525Z,25.76
2019-04-30T11:30:59.213Z,25.76
2019-04-30T11:31:59.302Z,25.67
2019-04-30T11:32:59.355Z,25.19
2019-04-30T11:33:59.060Z,25.09
2019-04-30T11:34:59.051Z,24.81
2019-04-30T11:36:03.110Z,25.00
2019-04-30T11:37:00.040Z,25.41
2019-04-30T11:37:59.019Z,25.04
2019-04-30T11:38:59.006Z,24.75
2019-04-30T11:39:58.997Z,24.58
2019-04-30T11:40:58.987Z,24.66
2019-04-30T11:41:58.994Z,24.75
2019-04-30T11:42:58.961Z,24.88
2019-04-30T11:43:59.491Z,24.78
2019-04-30T11:44:58.937Z,24.85
2019-04-30T11:46:00.332Z,25.37
2019-04-30T11:46:59.629Z,25.40
2019-04-30T11:48:00.579Z,24.82
2019-04-30T11:48:58.893Z,24.89
2019-04-30T11:49:58.891Z,24.74
2019-04-30T11:50:59.570Z,25.04
2019-04-30T11:51:58.883Z,25.14
2019-04-30T11:53:13.992Z,25.16
2019-04-30T11:53:59.838Z,24.47
2019-04-30T11:54:59.638Z,24.82
2019-04-30T11:55:59.241Z,25.12
2019-04-30T11:56:58.949Z,24.55
2019-04-30T11:57:59.254Z,24.44
2019-04-30T11:58:58.984Z,24.75
2019-04-30T11:59:58.775Z,24.86
2019-04-30T12:00:59.287Z,24.71
2019-04-30T12:01:58.769Z,24.84
2019-04-30T12:02:59.345Z,25.18
2019-04-30T12:03:59.854Z,25.11
2019-04-30T12:04:58.728Z,25.11
2019-04-30T12:05:58.987Z,25.26
2019-04-30T12:06:58.719Z,25.15
2019-04-30T12:07:59.723Z,24.04
2019-04-30T12:08:59.195Z,24.06
2019-04-30T12:09:59.589Z,24.22
2019-04-30T12:10:58.664Z,25.03
2019-04-30T12:11:58.997Z,25.36
2019-04-30T12:12:58.773Z,25.58
2019-04-30T12:13:58.644Z,24.89
2019-04-30T12:15:00.241Z,25.29
2019-04-30T12:15:58.983Z,25.06
2019-04-30T12:16:58.619Z,25.29
2019-04-30T12:17:58.592Z,25.06
2019-04-30T12:19:00.459Z,25.18
2019-04-30T12:19:58.715Z,25.18
2019-04-30T12:20:58.562Z,25.18
2019-04-30T12:21:58.564Z,25.19
2019-04-30T12:22:59.171Z,24.79
2019-04-30T12:23:58.525Z,24.88
2019-04-30T12:25:04.942Z,25.30
2019-04-30T12:26:02.686Z,24.89
2019-04-30T12:26:58.518Z,24.71
2019-04-30T12:27:59.590Z,24.68
2019-04-30T12:28:58.480Z,24.82
2019-04-30T12:29:59.436Z,24.43
2019-04-30T12:30:58.945Z,24.84
2019-04-30T12:31:58.458Z,25.12
2019-04-30T12:32:59.055Z,24.85
2019-04-30T12:33:58.430Z,24.86
2019-04-30T12:34:58.420Z,24.68
2019-04-30T12:35:59.636Z,24.89
2019-04-30T12:36:59.610Z,24.96
2019-04-30T12:37:58.857Z,25.24
2019-04-30T12:38:58.381Z,25.26
2019-04-30T12:39:59.355Z,25.41
2019-04-30T12:40:58.357Z,25.55
2019-04-30T12:41:59.235Z,25.49
2019-04-30T12:42:59.912Z,25.44
2019-04-30T12:43:58.326Z,25.31
2019-04-30T12:44:59.497Z,25.22
2019-04-30T12:46:04.835Z,24.51
2019-04-30T12:46:59.332Z,25.06
2019-04-30T12:47:58.281Z,25.48
2019-04-30T12:48:59.585Z,25.88
2019-04-30T12:50:00.860Z,25.74
2019-04-30T12:50:59.029Z,25.77
2019-04-30T12:51:58.808Z,25.03
2019-04-30T12:52:59.444Z,25.01
2019-04-30T12:53:58.219Z,25.12
2019-04-30T12:54:58.214Z,25.43
2019-04-30T12:56:00.301Z,25.74
2019-04-30T12:56:58.196Z,25.88
2019-04-30T12:58:01.350Z,25.74
2019-04-30T12:58:58.173Z,25.85
2019-04-30T13:00:00.050Z,26.19
2019-04-30T13:00:59.154Z,26.11
2019-04-30T13:01:59.357Z,26.29
2019-04-30T13:02:58.148Z,25.96
2019-04-30T13:04:00.860Z,25.67
2019-04-30T13:05:00.320Z,25.61